Xl Ranch Indian Reservation, California
Current Conditions -  °F | °C
As of 3:55 PM on Monday 20 Oct 2014 (Local Time) from KAAT Reporting Station
Light Rain Light Rain  
Wind Chill: 55°   Ceiling: 7000
Heat Index: 55°   Visibility: 10mi
Dew Point: 50°   Wind: 10mph
Humidity: 83%   Direction: 280°W
Pressure: 29.88"   Gusts: NA
Location:  41.4836°N, 120.55°W
Report Text: KAAT 202255Z AUTO 28009KT 10SM -RA SCT055 BKN070 OVC095 13/10 A2988 RMK AO2 RAB04 SLP105 P0001 T01280100
Loading
Personal Weather Stations






























Interactive Weather Map
Tropical Storm Tracking
New forecast layout! Learn more

10-Day Weather Forecast

Advertisements
Track Severe Weather on mobile